sensor_id;sensor_type;location;lat;lon;timestamp;P1;durP1;ratioP1;P2;durP2;ratioP2
6739;SDS011;3407;49.882;10.920;2022-10-16T00:00:55;3.07;;;2.40;;
6739;SDS011;3407;49.882;10.920;2022-10-16T00:05:50;4.43;;;2.50;;
6739;SDS011;3407;49.882;10.920;2022-10-16T00:10:46;4.73;;;2.30;;
6739;SDS011;3407;49.882;10.920;2022-10-16T00:15:41;2.17;;;2.00;;
6739;SDS011;3407;49.882;10.920;2022-10-16T00:20:38;2.27;;;1.90;;
6739;SDS011;3407;49.882;10.920;2022-10-16T00:25:34;3.17;;;2.20;;
6739;SDS011;3407;49.882;10.920;2022-10-16T00:30:29;2.50;;;2.30;;
6739;SDS011;3407;49.882;10.920;2022-10-16T00:35:25;2.20;;;2.00;;
6739;SDS011;3407;49.882;10.920;2022-10-16T00:40:20;2.67;;;2.10;;
6739;SDS011;3407;49.882;10.920;2022-10-16T00:45:16;4.27;;;2.23;;
6739;SDS011;3407;49.882;10.920;2022-10-16T00:50:16;4.67;;;2.40;;
6739;SDS011;3407;49.882;10.920;2022-10-16T00:55:19;6.27;;;2.20;;
6739;SDS011;3407;49.882;10.920;2022-10-16T01:00:17;3.80;;;1.83;;
6739;SDS011;3407;49.882;10.920;2022-10-16T01:05:14;2.40;;;1.80;;
6739;SDS011;3407;49.882;10.920;2022-10-16T01:15:37;1.50;;;1.40;;
6739;SDS011;3407;49.882;10.920;2022-10-16T01:20:54;4.00;;;1.87;;
6739;SDS011;3407;49.882;10.920;2022-10-16T01:26:11;2.57;;;1.70;;
6739;SDS011;3407;49.882;10.920;2022-10-16T01:31:27;4.20;;;1.77;;
6739;SDS011;3407;49.882;10.920;2022-10-16T01:36:27;2.17;;;1.93;;
6739;SDS011;3407;49.882;10.920;2022-10-16T01:41:37;2.20;;;2.00;;
6739;SDS011;3407;49.882;10.920;2022-10-16T01:46:37;2.37;;;2.17;;
6739;SDS011;3407;49.882;10.920;2022-10-16T01:51:36;5.07;;;2.00;;
6739;SDS011;3407;49.882;10.920;2022-10-16T01:56:32;1.90;;;1.70;;
6739;SDS011;3407;49.882;10.920;2022-10-16T02:01:30;4.20;;;1.83;;
6739;SDS011;3407;49.882;10.920;2022-10-16T02:06:29;2.77;;;1.77;;
6739;SDS011;3407;49.882;10.920;2022-10-16T02:11:25;2.53;;;1.77;;
6739;SDS011;3407;49.882;10.920;2022-10-16T02:16:23;2.27;;;1.93;;
6739;SDS011;3407;49.882;10.920;2022-10-16T02:21:34;4.83;;;1.67;;
6739;SDS011;3407;49.882;10.920;2022-10-16T02:27:27;5.43;;;2.27;;
6739;SDS011;3407;49.882;10.920;2022-10-16T02:31:58;1.67;;;1.57;;
6739;SDS011;3407;49.882;10.920;2022-10-16T02:36:58;2.10;;;1.90;;
6739;SDS011;3407;49.882;10.920;2022-10-16T02:41:56;2.33;;;2.10;;
6739;SDS011;3407;49.882;10.920;2022-10-16T02:46:51;3.60;;;1.70;;
6739;SDS011;3407;49.882;10.920;2022-10-16T02:51:47;2.30;;;1.77;;
6739;SDS011;3407;49.882;10.920;2022-10-16T02:56:42;2.20;;;2.00;;
6739;SDS011;3407;49.882;10.920;2022-10-16T03:01:38;2.10;;;1.90;;
6739;SDS011;3407;49.882;10.920;2022-10-16T03:06:33;2.40;;;1.70;;
6739;SDS011;3407;49.882;10.920;2022-10-16T03:11:29;2.87;;;1.73;;
6739;SDS011;3407;49.882;10.920;2022-10-16T03:16:25;2.20;;;1.60;;
6739;SDS011;3407;49.882;10.920;2022-10-16T03:21:20;4.90;;;1.70;;
6739;SDS011;3407;49.882;10.920;2022-10-16T03:26:16;3.17;;;1.40;;
6739;SDS011;3407;49.882;10.920;2022-10-16T03:31:12;2.17;;;1.60;;
6739;SDS011;3407;49.882;10.920;2022-10-16T03:36:07;1.83;;;1.73;;
6739;SDS011;3407;49.882;10.920;2022-10-16T03:41:03;2.70;;;1.90;;
6739;SDS011;3407;49.882;10.920;2022-10-16T03:45:59;1.50;;;1.40;;
6739;SDS011;3407;49.882;10.920;2022-10-16T03:50:54;2.03;;;1.83;;
6739;SDS011;3407;49.882;10.920;2022-10-16T03:55:50;1.83;;;1.73;;
6739;SDS011;3407;49.882;10.920;2022-10-16T04:00:46;2.67;;;1.87;;
6739;SDS011;3407;49.882;10.920;2022-10-16T04:05:42;4.97;;;3.93;;
6739;SDS011;3407;49.882;10.920;2022-10-16T04:10:38;2.60;;;1.70;;
6739;SDS011;3407;49.882;10.920;2022-10-16T04:15:33;2.63;;;2.00;;
6739;SDS011;3407;49.882;10.920;2022-10-16T04:20:29;2.40;;;2.00;;
6739;SDS011;3407;49.882;10.920;2022-10-16T04:25:24;1.83;;;1.73;;
6739;SDS011;3407;49.882;10.920;2022-10-16T04:30:21;2.10;;;1.80;;
6739;SDS011;3407;49.882;10.920;2022-10-16T04:35:17;3.13;;;2.20;;
6739;SDS011;3407;49.882;10.920;2022-10-16T04:40:14;4.10;;;1.93;;
6739;SDS011;3407;49.882;10.920;2022-10-16T04:45:09;3.43;;;1.90;;
6739;SDS011;3407;49.882;10.920;2022-10-16T04:50:05;2.20;;;2.00;;
6739;SDS011;3407;49.882;10.920;2022-10-16T04:55:02;2.30;;;1.90;;
6739;SDS011;3407;49.882;10.920;2022-10-16T04:59:57;2.43;;;1.90;;
6739;SDS011;3407;49.882;10.920;2022-10-16T05:04:53;3.97;;;2.00;;
6739;SDS011;3407;49.882;10.920;2022-10-16T05:09:48;2.10;;;1.90;;
6739;SDS011;3407;49.882;10.920;2022-10-16T05:14:44;2.73;;;2.00;;
6739;SDS011;3407;49.882;10.920;2022-10-16T05:19:39;5.87;;;2.10;;
6739;SDS011;3407;49.882;10.920;2022-10-16T05:24:35;3.30;;;2.23;;
6739;SDS011;3407;49.882;10.920;2022-10-16T05:29:30;2.67;;;1.63;;
6739;SDS011;3407;49.882;10.920;2022-10-16T05:34:26;3.07;;;1.93;;
6739;SDS011;3407;49.882;10.920;2022-10-16T05:39:22;2.17;;;1.80;;
6739;SDS011;3407;49.882;10.920;2022-10-16T05:44:17;2.20;;;2.00;;
6739;SDS011;3407;49.882;10.920;2022-10-16T05:49:13;2.37;;;2.17;;
6739;SDS011;3407;49.882;10.920;2022-10-16T05:54:09;2.07;;;1.93;;
6739;SDS011;3407;49.882;10.920;2022-10-16T05:59:04;2.00;;;1.90;;
6739;SDS011;3407;49.882;10.920;2022-10-16T06:04:00;2.40;;;1.97;;
6739;SDS011;3407;49.882;10.920;2022-10-16T06:08:56;3.67;;;2.10;;
6739;SDS011;3407;49.882;10.920;2022-10-16T06:13:53;3.30;;;1.90;;
6739;SDS011;3407;49.882;10.920;2022-10-16T06:18:51;1.90;;;1.80;;
6739;SDS011;3407;49.882;10.920;2022-10-16T06:23:47;2.77;;;2.13;;
6739;SDS011;3407;49.882;10.920;2022-10-16T06:28:43;3.00;;;1.97;;
6739;SDS011;3407;49.882;10.920;2022-10-16T06:33:39;4.10;;;2.20;;
6739;SDS011;3407;49.882;10.920;2022-10-16T06:38:35;2.30;;;2.10;;
6739;SDS011;3407;49.882;10.920;2022-10-16T06:43:31;4.57;;;2.13;;
6739;SDS011;3407;49.882;10.920;2022-10-16T06:48:28;2.57;;;1.97;;
6739;SDS011;3407;49.882;10.920;2022-10-16T06:53:24;2.33;;;1.90;;
6739;SDS011;3407;49.882;10.920;2022-10-16T06:58:21;2.53;;;2.33;;
6739;SDS011;3407;49.882;10.920;2022-10-16T07:03:17;9.43;;;2.57;;
6739;SDS011;3407;49.882;10.920;2022-10-16T07:08:12;2.83;;;2.23;;
6739;SDS011;3407;49.882;10.920;2022-10-16T07:13:08;3.27;;;2.90;;
6739;SDS011;3407;49.882;10.920;2022-10-16T07:18:03;2.90;;;1.90;;
6739;SDS011;3407;49.882;10.920;2022-10-16T07:22:59;3.97;;;2.90;;
6739;SDS011;3407;49.882;10.920;2022-10-16T07:27:54;2.50;;;2.33;;
6739;SDS011;3407;49.882;10.920;2022-10-16T07:32:51;6.43;;;2.20;;
6739;SDS011;3407;49.882;10.920;2022-10-16T07:37:46;2.67;;;2.37;;
6739;SDS011;3407;49.882;10.920;2022-10-16T07:42:42;2.83;;;2.53;;
6739;SDS011;3407;49.882;10.920;2022-10-16T07:47:37;5.13;;;2.90;;
6739;SDS011;3407;49.882;10.920;2022-10-16T07:52:32;5.50;;;2.37;;
6739;SDS011;3407;49.882;10.920;2022-10-16T07:57:28;3.73;;;2.70;;
6739;SDS011;3407;49.882;10.920;2022-10-16T08:02:24;2.80;;;1.97;;
6739;SDS011;3407;49.882;10.920;2022-10-16T08:07:19;3.50;;;2.60;;
6739;SDS011;3407;49.882;10.920;2022-10-16T08:12:14;4.93;;;2.30;;
6739;SDS011;3407;49.882;10.920;2022-10-16T08:17:10;4.67;;;2.20;;
6739;SDS011;3407;49.882;10.920;2022-10-16T08:22:09;2.97;;;1.87;;
6739;SDS011;3407;49.882;10.920;2022-10-16T08:27:04;3.20;;;1.97;;
6739;SDS011;3407;49.882;10.920;2022-10-16T08:32:00;2.20;;;2.00;;
6739;SDS011;3407;49.882;10.920;2022-10-16T08:36:55;2.13;;;1.97;;
6739;SDS011;3407;49.882;10.920;2022-10-16T08:42:01;3.63;;;1.90;;
6739;SDS011;3407;49.882;10.920;2022-10-16T08:47:20;3.10;;;2.77;;
6739;SDS011;3407;49.882;10.920;2022-10-16T08:52:21;7.00;;;3.57;;
6739;SDS011;3407;49.882;10.920;2022-10-16T08:57:19;5.07;;;3.17;;
6739;SDS011;3407;49.882;10.920;2022-10-16T09:22:29;5.63;;;1.83;;
6739;SDS011;3407;49.882;10.920;2022-10-16T09:27:27;2.23;;;1.90;;
6739;SDS011;3407;49.882;10.920;2022-10-16T09:32:22;1.80;;;1.70;;
6739;SDS011;3407;49.882;10.920;2022-10-16T09:37:19;5.53;;;1.60;;
6739;SDS011;3407;49.882;10.920;2022-10-16T09:42:32;4.37;;;1.90;;
6739;SDS011;3407;49.882;10.920;2022-10-16T09:47:30;3.93;;;1.90;;
6739;SDS011;3407;49.882;10.920;2022-10-16T09:52:27;3.60;;;1.90;;
6739;SDS011;3407;49.882;10.920;2022-10-16T09:57:23;2.10;;;1.90;;
6739;SDS011;3407;49.882;10.920;2022-10-16T10:02:23;2.40;;;2.10;;
6739;SDS011;3407;49.882;10.920;2022-10-16T10:07:24;2.80;;;1.90;;
6739;SDS011;3407;49.882;10.920;2022-10-16T10:12:29;2.07;;;1.70;;
6739;SDS011;3407;49.882;10.920;2022-10-16T10:17:31;2.60;;;1.73;;
6739;SDS011;3407;49.882;10.920;2022-10-16T10:38:19;1.67;;;1.57;;
6739;SDS011;3407;49.882;10.920;2022-10-16T10:43:22;2.00;;;1.80;;
6739;SDS011;3407;49.882;10.920;2022-10-16T10:48:47;1.93;;;1.70;;
6739;SDS011;3407;49.882;10.920;2022-10-16T10:54:26;4.27;;;1.80;;
6739;SDS011;3407;49.882;10.920;2022-10-16T11:04:54;1.70;;;1.60;;
6739;SDS011;3407;49.882;10.920;2022-10-16T11:10:13;3.97;;;1.50;;
6739;SDS011;3407;49.882;10.920;2022-10-16T11:21:13;1.60;;;1.50;;
6739;SDS011;3407;49.882;10.920;2022-10-16T11:25:59;3.17;;;1.57;;
6739;SDS011;3407;49.882;10.920;2022-10-16T11:31:00;2.23;;;1.70;;
6739;SDS011;3407;49.882;10.920;2022-10-16T11:41:39;4.90;;;1.90;;
6739;SDS011;3407;49.882;10.920;2022-10-16T11:46:40;3.63;;;2.33;;
6739;SDS011;3407;49.882;10.920;2022-10-16T11:51:54;2.63;;;2.37;;
6739;SDS011;3407;49.882;10.920;2022-10-16T11:57:20;7.20;;;2.60;;
6739;SDS011;3407;49.882;10.920;2022-10-16T12:07:41;2.97;;;2.47;;
6739;SDS011;3407;49.882;10.920;2022-10-16T12:12:50;3.63;;;2.30;;
6739;SDS011;3407;49.882;10.920;2022-10-16T12:17:46;3.67;;;2.27;;
6739;SDS011;3407;49.882;10.920;2022-10-16T12:22:49;3.57;;;1.93;;
6739;SDS011;3407;49.882;10.920;2022-10-16T12:33:00;2.33;;;2.00;;
6739;SDS011;3407;49.882;10.920;2022-10-16T12:38:04;2.03;;;1.63;;
6739;SDS011;3407;49.882;10.920;2022-10-16T12:43:12;3.03;;;1.60;;
6739;SDS011;3407;49.882;10.920;2022-10-16T12:48:28;3.67;;;1.50;;
6739;SDS011;3407;49.882;10.920;2022-10-16T12:53:25;1.53;;;1.30;;
6739;SDS011;3407;49.882;10.920;2022-10-16T12:58:28;1.60;;;1.50;;
6739;SDS011;3407;49.882;10.920;2022-10-16T13:19:38;2.33;;;1.27;;
6739;SDS011;3407;49.882;10.920;2022-10-16T13:24:58;2.10;;;1.70;;
6739;SDS011;3407;49.882;10.920;2022-10-16T13:30:02;1.80;;;1.70;;
6739;SDS011;3407;49.882;10.920;2022-10-16T13:35:31;3.47;;;2.20;;
6739;SDS011;3407;49.882;10.920;2022-10-16T13:40:28;6.90;;;4.73;;
6739;SDS011;3407;49.882;10.920;2022-10-16T13:45:24;3.00;;;2.43;;
6739;SDS011;3407;49.882;10.920;2022-10-16T13:50:20;2.83;;;2.07;;
6739;SDS011;3407;49.882;10.920;2022-10-16T13:55:17;3.33;;;1.70;;
6739;SDS011;3407;49.882;10.920;2022-10-16T14:00:20;2.27;;;1.30;;
6739;SDS011;3407;49.882;10.920;2022-10-16T14:05:17;3.03;;;1.83;;
6739;SDS011;3407;49.882;10.920;2022-10-16T14:10:25;2.53;;;1.60;;
6739;SDS011;3407;49.882;10.920;2022-10-16T14:15:25;1.63;;;1.53;;
6739;SDS011;3407;49.882;10.920;2022-10-16T14:20:22;4.63;;;1.50;;
6739;SDS011;3407;49.882;10.920;2022-10-16T14:30:21;3.10;;;2.33;;
6739;SDS011;3407;49.882;10.920;2022-10-16T14:40:25;8.33;;;1.67;;
6739;SDS011;3407;49.882;10.920;2022-10-16T14:45:23;2.57;;;2.10;;
6739;SDS011;3407;49.882;10.920;2022-10-16T14:50:22;5.33;;;3.77;;
6739;SDS011;3407;49.882;10.920;2022-10-16T14:55:18;4.23;;;2.70;;
6739;SDS011;3407;49.882;10.920;2022-10-16T15:00:19;3.07;;;2.23;;
6739;SDS011;3407;49.882;10.920;2022-10-16T15:05:19;2.40;;;2.20;;
6739;SDS011;3407;49.882;10.920;2022-10-16T15:10:22;3.40;;;2.10;;
6739;SDS011;3407;49.882;10.920;2022-10-16T15:20:33;1.90;;;1.80;;
6739;SDS011;3407;49.882;10.920;2022-10-16T15:25:46;4.10;;;2.10;;
6739;SDS011;3407;49.882;10.920;2022-10-16T15:30:54;5.27;;;1.70;;
6739;SDS011;3407;49.882;10.920;2022-10-16T15:35:51;1.70;;;1.60;;
6739;SDS011;3407;49.882;10.920;2022-10-16T15:40:47;3.90;;;1.73;;
6739;SDS011;3407;49.882;10.920;2022-10-16T15:45:43;3.57;;;2.17;;
6739;SDS011;3407;49.882;10.920;2022-10-16T15:50:39;3.50;;;2.63;;
6739;SDS011;3407;49.882;10.920;2022-10-16T15:55:35;6.30;;;2.33;;
6739;SDS011;3407;49.882;10.920;2022-10-16T16:00:32;3.93;;;2.90;;
6739;SDS011;3407;49.882;10.920;2022-10-16T16:05:28;3.40;;;2.30;;
6739;SDS011;3407;49.882;10.920;2022-10-16T16:10:24;9.20;;;4.13;;
6739;SDS011;3407;49.882;10.920;2022-10-16T16:15:20;20.60;;;7.47;;
6739;SDS011;3407;49.882;10.920;2022-10-16T16:20:16;9.43;;;6.63;;
6739;SDS011;3407;49.882;10.920;2022-10-16T16:25:12;13.60;;;10.37;;
6739;SDS011;3407;49.882;10.920;2022-10-16T16:30:09;15.33;;;8.07;;
6739;SDS011;3407;49.882;10.920;2022-10-16T16:35:06;13.10;;;11.27;;
6739;SDS011;3407;49.882;10.920;2022-10-16T16:40:01;16.47;;;12.93;;
6739;SDS011;3407;49.882;10.920;2022-10-16T16:44:57;10.57;;;8.93;;
6739;SDS011;3407;49.882;10.920;2022-10-16T16:49:52;5.27;;;3.70;;
6739;SDS011;3407;49.882;10.920;2022-10-16T16:54:48;5.43;;;2.33;;
6739;SDS011;3407;49.882;10.920;2022-10-16T16:59:46;2.43;;;2.23;;
6739;SDS011;3407;49.882;10.920;2022-10-16T17:04:44;5.00;;;3.20;;
6739;SDS011;3407;49.882;10.920;2022-10-16T17:09:40;4.87;;;2.63;;
6739;SDS011;3407;49.882;10.920;2022-10-16T17:14:35;5.53;;;2.83;;
6739;SDS011;3407;49.882;10.920;2022-10-16T17:19:31;4.23;;;2.80;;
6739;SDS011;3407;49.882;10.920;2022-10-16T17:24:26;3.00;;;2.70;;
6739;SDS011;3407;49.882;10.920;2022-10-16T17:29:22;8.30;;;2.77;;
6739;SDS011;3407;49.882;10.920;2022-10-16T17:34:17;2.83;;;2.63;;
6739;SDS011;3407;49.882;10.920;2022-10-16T17:39:14;3.83;;;2.77;;
6739;SDS011;3407;49.882;10.920;2022-10-16T17:44:12;4.17;;;2.63;;
6739;SDS011;3407;49.882;10.920;2022-10-16T17:49:17;4.43;;;2.93;;
6739;SDS011;3407;49.882;10.920;2022-10-16T17:54:14;5.43;;;3.30;;
6739;SDS011;3407;49.882;10.920;2022-10-16T17:59:10;4.23;;;3.83;;
6739;SDS011;3407;49.882;10.920;2022-10-16T18:04:07;6.40;;;4.23;;
6739;SDS011;3407;49.882;10.920;2022-10-16T18:09:04;9.23;;;4.70;;
6739;SDS011;3407;49.882;10.920;2022-10-16T18:14:02;5.93;;;5.17;;
6739;SDS011;3407;49.882;10.920;2022-10-16T18:18:58;5.40;;;4.83;;
6739;SDS011;3407;49.882;10.920;2022-10-16T18:23:54;6.03;;;5.10;;
6739;SDS011;3407;49.882;10.920;2022-10-16T18:28:52;7.53;;;5.87;;
6739;SDS011;3407;49.882;10.920;2022-10-16T18:33:48;6.73;;;5.43;;
6739;SDS011;3407;49.882;10.920;2022-10-16T18:38:45;7.00;;;4.87;;
6739;SDS011;3407;49.882;10.920;2022-10-16T18:43:41;6.57;;;5.10;;
6739;SDS011;3407;49.882;10.920;2022-10-16T18:48:36;6.40;;;4.97;;
6739;SDS011;3407;49.882;10.920;2022-10-16T18:53:32;5.43;;;4.27;;
6739;SDS011;3407;49.882;10.920;2022-10-16T18:58:28;11.20;;;3.87;;
6739;SDS011;3407;49.882;10.920;2022-10-16T19:03:24;7.83;;;5.20;;
6739;SDS011;3407;49.882;10.920;2022-10-16T19:08:19;10.07;;;5.77;;
6739;SDS011;3407;49.882;10.920;2022-10-16T19:13:15;7.63;;;3.60;;
6739;SDS011;3407;49.882;10.920;2022-10-16T19:18:10;6.00;;;2.77;;
6739;SDS011;3407;49.882;10.920;2022-10-16T19:23:06;5.10;;;3.73;;
6739;SDS011;3407;49.882;10.920;2022-10-16T19:28:02;3.47;;;2.30;;
6739;SDS011;3407;49.882;10.920;2022-10-16T19:33:01;3.47;;;2.80;;
6739;SDS011;3407;49.882;10.920;2022-10-16T19:37:57;2.63;;;2.30;;
6739;SDS011;3407;49.882;10.920;2022-10-16T19:42:53;5.27;;;3.10;;
6739;SDS011;3407;49.882;10.920;2022-10-16T19:47:48;6.30;;;3.00;;
6739;SDS011;3407;49.882;10.920;2022-10-16T19:52:44;5.63;;;3.57;;
6739;SDS011;3407;49.882;10.920;2022-10-16T19:57:40;5.30;;;3.20;;
6739;SDS011;3407;49.882;10.920;2022-10-16T20:02:35;7.57;;;4.30;;
6739;SDS011;3407;49.882;10.920;2022-10-16T20:07:31;5.03;;;3.37;;
6739;SDS011;3407;49.882;10.920;2022-10-16T20:12:27;7.40;;;3.57;;
6739;SDS011;3407;49.882;10.920;2022-10-16T20:17:22;4.30;;;3.20;;
6739;SDS011;3407;49.882;10.920;2022-10-16T20:22:18;9.57;;;3.37;;
6739;SDS011;3407;49.882;10.920;2022-10-16T20:27:14;8.13;;;3.40;;
6739;SDS011;3407;49.882;10.920;2022-10-16T20:32:09;7.30;;;3.63;;
6739;SDS011;3407;49.882;10.920;2022-10-16T20:37:05;6.23;;;4.13;;
6739;SDS011;3407;49.882;10.920;2022-10-16T20:42:01;8.33;;;4.50;;
6739;SDS011;3407;49.882;10.920;2022-10-16T20:46:59;3.50;;;2.97;;
6739;SDS011;3407;49.882;10.920;2022-10-16T20:51:55;4.90;;;3.50;;
6739;SDS011;3407;49.882;10.920;2022-10-16T20:56:50;7.77;;;3.57;;
6739;SDS011;3407;49.882;10.920;2022-10-16T21:01:47;5.53;;;3.43;;
6739;SDS011;3407;49.882;10.920;2022-10-16T21:06:42;6.30;;;3.43;;
6739;SDS011;3407;49.882;10.920;2022-10-16T21:11:39;6.73;;;3.83;;
6739;SDS011;3407;49.882;10.920;2022-10-16T21:16:35;4.40;;;3.43;;
6739;SDS011;3407;49.882;10.920;2022-10-16T21:21:32;5.93;;;3.20;;
6739;SDS011;3407;49.882;10.920;2022-10-16T21:26:29;7.83;;;3.53;;
6739;SDS011;3407;49.882;10.920;2022-10-16T21:31:26;5.77;;;3.47;;
6739;SDS011;3407;49.882;10.920;2022-10-16T21:36:26;6.63;;;3.10;;
6739;SDS011;3407;49.882;10.920;2022-10-16T21:41:26;4.10;;;2.70;;
6739;SDS011;3407;49.882;10.920;2022-10-16T21:46:24;3.90;;;2.93;;
6739;SDS011;3407;49.882;10.920;2022-10-16T21:51:29;4.00;;;2.90;;
6739;SDS011;3407;49.882;10.920;2022-10-16T21:56:30;4.47;;;2.50;;
6739;SDS011;3407;49.882;10.920;2022-10-16T22:01:27;10.07;;;3.07;;
6739;SDS011;3407;49.882;10.920;2022-10-16T22:06:23;6.73;;;2.60;;
6739;SDS011;3407;49.882;10.920;2022-10-16T22:11:22;7.60;;;2.60;;
6739;SDS011;3407;49.882;10.920;2022-10-16T22:16:20;9.77;;;3.03;;
6739;SDS011;3407;49.882;10.920;2022-10-16T22:21:17;6.23;;;2.50;;
6739;SDS011;3407;49.882;10.920;2022-10-16T22:26:13;5.83;;;2.50;;
6739;SDS011;3407;49.882;10.920;2022-10-16T22:31:11;7.40;;;2.60;;
6739;SDS011;3407;49.882;10.920;2022-10-16T22:36:09;5.50;;;2.70;;
6739;SDS011;3407;49.882;10.920;2022-10-16T22:41:07;5.00;;;2.20;;
6739;SDS011;3407;49.882;10.920;2022-10-16T22:46:05;5.97;;;4.57;;
6739;SDS011;3407;49.882;10.920;2022-10-16T22:51:03;8.40;;;2.67;;
6739;SDS011;3407;49.882;10.920;2022-10-16T22:55:59;5.20;;;2.17;;
6739;SDS011;3407;49.882;10.920;2022-10-16T23:00:55;6.00;;;2.30;;
6739;SDS011;3407;49.882;10.920;2022-10-16T23:05:50;3.57;;;2.07;;
6739;SDS011;3407;49.882;10.920;2022-10-16T23:10:47;6.07;;;3.03;;
6739;SDS011;3407;49.882;10.920;2022-10-16T23:15:43;6.90;;;4.07;;
6739;SDS011;3407;49.882;10.920;2022-10-16T23:20:39;11.67;;;4.53;;
6739;SDS011;3407;49.882;10.920;2022-10-16T23:25:35;10.67;;;4.73;;
6739;SDS011;3407;49.882;10.920;2022-10-16T23:30:31;6.03;;;4.43;;
6739;SDS011;3407;49.882;10.920;2022-10-16T23:35:27;12.97;;;6.17;;
6739;SDS011;3407;49.882;10.920;2022-10-16T23:40:23;10.83;;;4.27;;
6739;SDS011;3407;49.882;10.920;2022-10-16T23:45:18;13.00;;;4.93;;
6739;SDS011;3407;49.882;10.920;2022-10-16T23:50:14;12.70;;;3.23;;
6739;SDS011;3407;49.882;10.920;2022-10-16T23:55:09;5.53;;;3.40;;
